Time;durP1;ratioP1;P1;durP2;ratioP2;P2;SDS_P1;SDS_P2;PMS_P1;PMS_P2;Temp;Humidity;BMP_temperature;BMP_pressure;BME280_temperature;BME280_humidity;BME280_pressure;Samples;Min_cycle;Max_cycle;Signal;HPM_P1;HPM_P2
2021/12/28 00:00:32;;;;;;;;;;;;;;;;;;4223499;28;967;-54
2021/12/28 00:02:52;;;;;;;;;;;;;;;;;;4223929;28;1008;-55
2021/12/28 00:05:13;;;;;;;;;;;;;;;;;;4223662;28;993;-54
2021/12/28 00:07:33;;;;;;;;;;;;;;;;;;4223424;28;1978;-54
2021/12/28 00:09:53;;;;;;;;;;;;;;;;;;4224003;28;1300;-54
2021/12/28 00:12:14;;;;;;;;;;;;;;;;;;4223296;28;1299;-54
2021/12/28 00:14:37;;;;;;;;;;;;;;;;;;4223196;28;1403;-54
2021/12/28 00:19:36;;;;;;;;;;;;;;;;;;4223241;28;1155;-54
2021/12/28 00:21:56;;;;;;;;;;;;;;;;;;4223434;28;962;-53
2021/12/28 00:24:16;;;;;;;;;;;;;;;;;;4223130;28;1150;-53
2021/12/28 00:26:36;;;;;;;;;;;;;;;;;;4223203;28;1988;-54
2021/12/28 00:28:56;;;;;;;;;;;;;;;;;;4223098;28;970;-54
2021/12/28 00:31:17;;;;;;;;;;;;;;;;;;4207823;28;1071;-54
2021/12/28 00:33:37;;;;;;;;;;;;;;;;;;4222837;28;937;-54
2021/12/28 00:35:57;;;;;;;;;;;;;;;;;;4221766;28;967;-54
2021/12/28 00:38:19;;;;;;;;;;;;;;;;;;4222839;28;1348;-54
2021/12/28 00:40:39;;;;;;;;;;;;;;;;;;4222965;28;1030;-54
2021/12/28 00:43:00;;;;;;;;;;;;;;;;;;4222747;28;1701;-54
2021/12/28 00:45:20;;;;;;;;;;;;;;;;;;4222944;28;1220;-54
2021/12/28 00:47:41;;;;;;;;;;;;;;;;;;4222675;28;1984;-54
2021/12/28 00:50:01;;;;;;;;;;;;;;;;;;4222677;28;925;-54
2021/12/28 00:52:22;;;;;;;;;;;;;;;;;;4222770;28;1161;-53
2021/12/28 00:54:42;;;;;;;;;;;;;;;;;;4222724;28;1013;-54
2021/12/28 00:57:03;;;;;;;;;;;;;;;;;;4222536;28;1134;-54
2021/12/28 00:59:23;;;;;;;;;;;;;;;;;;4222632;28;1158;-55
2021/12/28 01:01:43;;;;;;;;;;;;;;;;;;4222462;28;1360;-54
2021/12/28 01:04:04;;;;;;;;;;;;;;;;;;4222656;28;1157;-54
2021/12/28 01:06:25;;;;;;;;;;;;;;;;;;4222553;28;1980;-54
2021/12/28 01:08:46;;;;;;;;;;;;;;;;;;4222573;28;1004;-56
2021/12/28 01:11:06;;;;;;;;;;;;;;;;;;4222572;28;938;-54
2021/12/28 01:13:26;;;;;;;;;;;;;;;;;;4222395;28;1609;-54
2021/12/28 01:15:47;;;;;;;;;;;;;;;;;;4222224;28;1208;-54
2021/12/28 01:18:07;;;;;;;;;;;;;;;;;;4222407;28;1477;-54
2021/12/28 01:20:28;;;;;;;;;;;;;;;;;;4222434;28;1263;-54
2021/12/28 01:22:48;;;;;;;;;;;;;;;;;;4222384;28;1188;-54
2021/12/28 01:25:09;;;;;;;;;;;;;;;;;;4222440;28;947;-53
2021/12/28 01:27:29;;;;;;;;;;;;;;;;;;4222242;28;1906;-54
2021/12/28 01:29:49;;;;;;;;;;;;;;;;;;4222385;28;1129;-54
2021/12/28 01:32:10;;;;;;;;;;;;;;;;;;4222436;28;1360;-53
2021/12/28 01:34:30;;;;;;;;;;;;;;;;;;4222342;28;1084;-54
2021/12/28 01:36:51;;;;;;;;;;;;;;;;;;4222227;28;1096;-54
2021/12/28 01:39:11;;;;;;;;;;;;;;;;;;4222187;28;1099;-53
2021/12/28 01:41:31;;;;;;;;;;;;;;;;;;4222318;28;1011;-53
2021/12/28 01:43:52;;;;;;;;;;;;;;;;;;4222054;28;973;-54
2021/12/28 01:46:12;;;;;;;;;;;;;;;;;;4221799;28;1246;-54
2021/12/28 01:48:32;;;;;;;;;;;;;;;;;;4206717;28;1905;-53
2021/12/28 01:50:52;;;;;;;;;;;;;;;;;;4221995;28;1255;-54
2021/12/28 01:53:13;;;;;;;;;;;;;;;;;;4221917;28;1008;-54
2021/12/28 01:55:33;;;;;;;;;;;;;;;;;;4221947;28;1076;-53
2021/12/28 01:57:53;;;;;;;;;;;;;;;;;;4221269;28;1104;-54
2021/12/28 02:03:39;;;;;;;;;;;;;;;;;;4221165;28;1117;-54
2021/12/28 02:05:59;;;;;;;;;;;;;;;;;;4221192;28;1196;-53
2021/12/28 02:08:19;;;;;;;;;;;;;;;;;;4221197;28;1901;-54
2021/12/28 02:10:40;;;;;;;;;;;;;;;;;;4221165;28;1337;-55
2021/12/28 02:13:00;;;;;;;;;;;;;;;;;;4221036;28;1125;-54
2021/12/28 02:15:20;;;;;;;;;;;;;;;;;;4221089;28;1035;-54
2021/12/28 02:17:40;;;;;;;;;;;;;;;;;;4221408;28;1098;-54
2021/12/28 02:20:00;;;;;;;;;;;;;;;;;;4221474;28;1092;-53
2021/12/28 02:22:21;;;;;;;;;;;;;;;;;;4221576;28;1067;-54
2021/12/28 02:24:41;;;;;;;;;;;;;;;;;;4221266;28;1365;-54
2021/12/28 02:27:01;;;;;;;;;;;;;;;;;;4221528;28;1906;-53
2021/12/28 02:29:21;;;;;;;;;;;;;;;;;;4221140;28;1028;-54
2021/12/28 02:31:41;;;;;;;;;;;;;;;;;;4221585;28;1093;-54
2021/12/28 02:34:02;;;;;;;;;;;;;;;;;;4221381;28;1053;-53
2021/12/28 02:36:22;;;;;;;;;;;;;;;;;;4221126;28;1051;-54
2021/12/28 02:38:42;;;;;;;;;;;;;;;;;;4221424;28;1052;-54
2021/12/28 02:41:02;;;;;;;;;;;;;;;;;;4221520;28;917;-53
2021/12/28 02:43:22;;;;;;;;;;;;;;;;;;4221080;28;1059;-54
2021/12/28 02:45:43;;;;;;;;;;;;;;;;;;4221447;28;1206;-54
2021/12/28 02:48:03;;;;;;;;;;;;;;;;;;4221199;28;1901;-53
2021/12/28 02:50:23;;;;;;;;;;;;;;;;;;4221112;28;978;-54
2021/12/28 02:52:43;;;;;;;;;;;;;;;;;;4221468;28;1219;-54
2021/12/28 02:55:03;;;;;;;;;;;;;;;;;;4203476;28;1182;-53
2021/12/28 02:57:23;;;;;;;;;;;;;;;;;;4221265;28;1209;-54
2021/12/28 02:59:44;;;;;;;;;;;;;;;;;;4223570;28;982;-54
2021/12/28 03:02:04;;;;;;;;;;;;;;;;;;4224262;28;1055;-53
2021/12/28 03:04:27;;;;;;;;;;;;;;;;;;4224223;28;1086;-53
2021/12/28 03:06:47;;;;;;;;;;;;;;;;;;4224297;28;1041;-53
2021/12/28 03:09:08;;;;;;;;;;;;;;;;;;4224310;28;947;-54
2021/12/28 03:11:28;;;;;;;;;;;;;;;;;;4223861;28;1138;-53
2021/12/28 03:13:48;;;;;;;;;;;;;;;;;;4208525;28;1037;-53
2021/12/28 03:16:08;;;;;;;;;;;;;;;;;;4223827;28;1110;-53
2021/12/28 03:18:29;;;;;;;;;;;;;;;;;;4223542;28;1071;-53
2021/12/28 03:20:49;;;;;;;;;;;;;;;;;;4223853;28;1128;-53
2021/12/28 03:23:09;;;;;;;;;;;;;;;;;;4223936;28;1064;-53
2021/12/28 03:25:30;;;;;;;;;;;;;;;;;;4223954;28;1017;-54
2021/12/28 03:27:50;;;;;;;;;;;;;;;;;;4223487;28;1984;-53
2021/12/28 03:30:11;;;;;;;;;;;;;;;;;;4223678;28;1150;-54
2021/12/28 03:32:31;;;;;;;;;;;;;;;;;;4223873;28;928;-53
2021/12/28 03:34:52;;;;;;;;;;;;;;;;;;4223967;28;974;-53
2021/12/28 03:37:12;;;;;;;;;;;;;;;;;;4223727;28;1008;-54
2021/12/28 03:39:32;;;;;;;;;;;;;;;;;;4223613;28;1015;-53
2021/12/28 03:41:52;;;;;;;;;;;;;;;;;;4208521;28;1222;-53
2021/12/28 03:44:14;;;;;;;;;;;;;;;;;;4223396;28;1007;-54
2021/12/28 03:46:35;;;;;;;;;;;;;;;;;;4223585;28;928;-53
2021/12/28 03:48:55;;;;;;;;;;;;;;;;;;4223694;28;1984;-53
2021/12/28 03:51:15;;;;;;;;;;;;;;;;;;4223799;28;1046;-53
2021/12/28 03:53:35;;;;;;;;;;;;;;;;;;4223614;28;1172;-54
2021/12/28 03:55:56;;;;;;;;;;;;;;;;;;4223450;28;989;-53
2021/12/28 03:58:16;;;;;;;;;;;;;;;;;;4223310;28;969;-53
2021/12/28 04:00:36;;;;;;;;;;;;;;;;;;4223506;28;1102;-53
2021/12/28 04:02:56;;;;;;;;;;;;;;;;;;4223324;28;996;-54
2021/12/28 04:05:17;;;;;;;;;;;;;;;;;;4223379;28;1222;-53
2021/12/28 04:07:37;;;;;;;;;;;;;;;;;;4223276;28;1902;-53
2021/12/28 04:10:01;;;;;;;;;;;;;;;;;;4223278;28;999;-53
2021/12/28 04:12:21;;;;;;;;;;;;;;;;;;4222941;28;1306;-53
2021/12/28 04:14:41;;;;;;;;;;;;;;;;;;4223237;28;1088;-54
2021/12/28 04:17:02;;;;;;;;;;;;;;;;;;4223293;28;1273;-54
2021/12/28 04:19:22;;;;;;;;;;;;;;;;;;4223301;28;1010;-53
2021/12/28 04:21:42;;;;;;;;;;;;;;;;;;4223095;28;1086;-54
2021/12/28 04:24:03;;;;;;;;;;;;;;;;;;4222940;28;1301;-53
2021/12/28 04:26:23;;;;;;;;;;;;;;;;;;4223365;28;837;-54
2021/12/28 04:28:43;;;;;;;;;;;;;;;;;;4223076;28;1909;-53
2021/12/28 04:31:03;;;;;;;;;;;;;;;;;;4222992;28;1493;-54
2021/12/28 04:33:24;;;;;;;;;;;;;;;;;;4223016;28;1065;-53
2021/12/28 04:35:44;;;;;;;;;;;;;;;;;;4223249;28;1339;-53
2021/12/28 04:38:04;;;;;;;;;;;;;;;;;;4220291;28;2067;-53
2021/12/28 04:40:24;;;;;;;;;;;;;;;;;;4209981;28;1591;-54
2021/12/28 04:42:45;;;;;;;;;;;;;;;;;;4221432;28;1051;-53
2021/12/28 04:45:06;;;;;;;;;;;;;;;;;;4221259;28;1305;-54
2021/12/28 04:47:27;;;;;;;;;;;;;;;;;;4221163;28;1155;-53
2021/12/28 04:49:47;;;;;;;;;;;;;;;;;;4220805;28;1057;-53
2021/12/28 04:52:09;;;;;;;;;;;;;;;;;;4221147;28;1215;-53
2021/12/28 04:54:29;;;;;;;;;;;;;;;;;;4220809;28;1049;-54
2021/12/28 04:56:50;;;;;;;;;;;;;;;;;;4220674;28;1680;-55
2021/12/28 04:59:11;;;;;;;;;;;;;;;;;;4220791;28;1232;-53
2021/12/28 05:01:31;;;;;;;;;;;;;;;;;;4220725;28;985;-53
2021/12/28 05:03:51;;;;;;;;;;;;;;;;;;4220713;28;1086;-54
2021/12/28 05:06:12;;;;;;;;;;;;;;;;;;4234184;28;1102;-53
2021/12/28 05:08:32;;;;;;;;;;;;;;;;;;4237910;28;1886;-53
2021/12/28 05:10:52;;;;;;;;;;;;;;;;;;4237814;28;934;-54
2021/12/28 05:13:12;;;;;;;;;;;;;;;;;;4235108;28;1199;-53
2021/12/28 05:15:33;;;;;;;;;;;;;;;;;;4222292;28;1274;-53
2021/12/28 05:17:53;;;;;;;;;;;;;;;;;;4222302;28;1147;-53
2021/12/28 05:20:14;;;;;;;;;;;;;;;;;;4222071;28;1775;-53
2021/12/28 05:22:34;;;;;;;;;;;;;;;;;;4221491;28;1110;-53
2021/12/28 05:24:54;;;;;;;;;;;;;;;;;;4222536;28;977;-54
2021/12/28 05:27:14;;;;;;;;;;;;;;;;;;4222287;28;1166;-53
2021/12/28 05:29:35;;;;;;;;;;;;;;;;;;4222097;28;1978;-53
2021/12/28 05:31:55;;;;;;;;;;;;;;;;;;4221980;28;1205;-53
2021/12/28 05:34:17;;;;;;;;;;;;;;;;;;4222093;28;1170;-53
2021/12/28 05:36:37;;;;;;;;;;;;;;;;;;4221927;28;1321;-58
2021/12/28 05:38:57;;;;;;;;;;;;;;;;;;4222254;28;1012;-58
2021/12/28 05:41:17;;;;;;;;;;;;;;;;;;4222262;28;1179;-58
2021/12/28 05:43:37;;;;;;;;;;;;;;;;;;4222122;28;1047;-58
2021/12/28 05:45:57;;;;;;;;;;;;;;;;;;4222012;28;1013;-58
2021/12/28 05:48:18;;;;;;;;;;;;;;;;;;4221873;28;1917;-60
2021/12/28 05:50:39;;;;;;;;;;;;;;;;;;4221923;28;974;-58
2021/12/28 05:52:59;;;;;;;;;;;;;;;;;;4221650;28;996;-58
2021/12/28 05:55:19;;;;;;;;;;;;;;;;;;4221984;28;1229;-59
2021/12/28 05:57:39;;;;;;;;;;;;;;;;;;4222047;28;1541;-58
2021/12/28 05:59:59;;;;;;;;;;;;;;;;;;4221518;28;1136;-58
2021/12/28 06:02:20;;;;;;;;;;;;;;;;;;4221948;28;985;-58
2021/12/28 06:04:40;;;;;;;;;;;;;;;;;;4221817;28;955;-58
2021/12/28 06:07:01;;;;;;;;;;;;;;;;;;4221515;28;1155;-58
2021/12/28 06:09:21;;;;;;;;;;;;;;;;;;4203752;28;1981;-58
2021/12/28 06:11:41;;;;;;;;;;;;;;;;;;4222146;28;1125;-58
2021/12/28 06:14:01;;;;;;;;;;;;;;;;;;4221651;28;1471;-58
2021/12/28 06:16:22;;;;;;;;;;;;;;;;;;4221499;28;1229;-58
2021/12/28 06:18:42;;;;;;;;;;;;;;;;;;4221749;28;1187;-58
2021/12/28 06:21:02;;;;;;;;;;;;;;;;;;4221633;28;1074;-58
2021/12/28 06:23:23;;;;;;;;;;;;;;;;;;4221576;28;988;-58
2021/12/28 06:25:43;;;;;;;;;;;;;;;;;;4221656;28;1191;-58
2021/12/28 06:28:04;;;;;;;;;;;;;;;;;;4221559;28;1037;-58
2021/12/28 06:30:25;;;;;;;;;;;;;;;;;;4221396;28;1000;-58
2021/12/28 06:32:45;;;;;;;;;;;;;;;;;;4221206;28;1153;-58
2021/12/28 06:35:05;;;;;;;;;;;;;;;;;;4221059;28;1049;-58
2021/12/28 06:37:26;;;;;;;;;;;;;;;;;;4221485;28;1126;-58
2021/12/28 06:39:46;;;;;;;;;;;;;;;;;;4221278;28;1152;-58
2021/12/28 06:42:06;;;;;;;;;;;;;;;;;;4221210;28;1044;-58
2021/12/28 06:44:26;;;;;;;;;;;;;;;;;;4221438;28;1082;-58
2021/12/28 06:46:47;;;;;;;;;;;;;;;;;;4221398;28;966;-59
2021/12/28 06:49:08;;;;;;;;;;;;;;;;;;4221074;28;1989;-58
2021/12/28 06:51:28;;;;;;;;;;;;;;;;;;4221229;28;1008;-58
2021/12/28 06:53:48;;;;;;;;;;;;;;;;;;4221698;28;997;-58
2021/12/28 06:56:08;;;;;;;;;;;;;;;;;;4221238;28;926;-58
2021/12/28 06:58:29;;;;;;;;;;;;;;;;;;4221212;28;1097;-58
2021/12/28 07:00:49;;;;;;;;;;;;;;;;;;4221144;28;1033;-58
2021/12/28 07:03:09;;;;;;;;;;;;;;;;;;4221104;28;1060;-59
2021/12/28 07:05:29;;;;;;;;;;;;;;;;;;4221243;28;990;-58
2021/12/28 07:07:50;;;;;;;;;;;;;;;;;;4221115;28;971;-58
2021/12/28 07:10:10;;;;;;;;;;;;;;;;;;4220957;28;1906;-58
2021/12/28 07:12:31;;;;;;;;;;;;;;;;;;4221021;28;1348;-58
2021/12/28 07:14:51;;;;;;;;;;;;;;;;;;4221639;28;1024;-58
2021/12/28 07:17:11;;;;;;;;;;;;;;;;;;4220777;28;1283;-58
2021/12/28 07:19:31;;;;;;;;;;;;;;;;;;4221067;28;1017;-58
2021/12/28 07:21:52;;;;;;;;;;;;;;;;;;4221115;28;1386;-58
2021/12/28 07:24:13;;;;;;;;;;;;;;;;;;4221071;28;1155;-58
2021/12/28 07:26:34;;;;;;;;;;;;;;;;;;4221307;28;1152;-58
2021/12/28 07:28:54;;;;;;;;;;;;;;;;;;4220978;28;1976;-58
2021/12/28 07:31:14;;;;;;;;;;;;;;;;;;4221013;28;974;-58
2021/12/28 07:33:35;;;;;;;;;;;;;;;;;;4220977;28;1094;-58
2021/12/28 07:35:55;;;;;;;;;;;;;;;;;;4220854;28;938;-58
2021/12/28 07:38:16;;;;;;;;;;;;;;;;;;4220770;28;1541;-58
2021/12/28 07:40:36;;;;;;;;;;;;;;;;;;4220921;28;978;-59
2021/12/28 07:42:56;;;;;;;;;;;;;;;;;;4220748;28;960;-58
2021/12/28 07:45:16;;;;;;;;;;;;;;;;;;4222414;28;1263;-58
2021/12/28 07:47:37;;;;;;;;;;;;;;;;;;4223540;28;1095;-58
2021/12/28 07:49:58;;;;;;;;;;;;;;;;;;4223246;28;1902;-58
2021/12/28 07:52:18;;;;;;;;;;;;;;;;;;4223461;28;1095;-58
2021/12/28 07:54:38;;;;;;;;;;;;;;;;;;4223688;28;1174;-58
2021/12/28 07:56:58;;;;;;;;;;;;;;;;;;4223400;28;1482;-58
2021/12/28 07:59:18;;;;;;;;;;;;;;;;;;4223524;28;1001;-58
2021/12/28 08:01:39;;;;;;;;;;;;;;;;;;4223649;28;1090;-59
2021/12/28 08:03:59;;;;;;;;;;;;;;;;;;4223363;28;961;-59
2021/12/28 08:06:19;;;;;;;;;;;;;;;;;;4223354;28;1121;-58
2021/12/28 08:08:39;;;;;;;;;;;;;;;;;;4223523;28;1042;-59
2021/12/28 08:10:59;;;;;;;;;;;;;;;;;;4223117;28;1963;-59
2021/12/28 08:13:21;;;;;;;;;;;;;;;;;;4223251;28;987;-59
2021/12/28 08:15:42;;;;;;;;;;;;;;;;;;4223102;28;1313;-58
2021/12/28 08:18:03;;;;;;;;;;;;;;;;;;4223136;28;932;-59
2021/12/28 08:20:23;;;;;;;;;;;;;;;;;;4223286;28;1104;-58
2021/12/28 08:22:43;;;;;;;;;;;;;;;;;;4223071;28;980;-59
2021/12/28 08:25:04;;;;;;;;;;;;;;;;;;4222998;28;1187;-58
2021/12/28 08:27:24;;;;;;;;;;;;;;;;;;4207901;28;1032;-58
2021/12/28 08:29:44;;;;;;;;;;;;;;;;;;4223113;28;1980;-58
2021/12/28 08:32:05;;;;;;;;;;;;;;;;;;4222848;28;1156;-58
2021/12/28 08:34:25;;;;;;;;;;;;;;;;;;4223017;28;1034;-59
2021/12/28 08:36:45;;;;;;;;;;;;;;;;;;4223130;28;1057;-58
2021/12/28 08:39:05;;;;;;;;;;;;;;;;;;4222904;28;1026;-58
2021/12/28 08:41:26;;;;;;;;;;;;;;;;;;4223412;28;846;-58
2021/12/28 08:43:46;;;;;;;;;;;;;;;;;;4222801;28;1128;-58
2021/12/28 08:46:06;;;;;;;;;;;;;;;;;;4222533;28;1075;-58
2021/12/28 08:48:26;;;;;;;;;;;;;;;;;;4223622;28;956;-60
2021/12/28 08:50:47;;;;;;;;;;;;;;;;;;4222810;28;1986;-59
2021/12/28 08:53:07;;;;;;;;;;;;;;;;;;4222713;28;1047;-58
2021/12/28 08:55:27;;;;;;;;;;;;;;;;;;4222881;28;1011;-59
2021/12/28 08:57:48;;;;;;;;;;;;;;;;;;4222275;28;993;-58
2021/12/28 09:00:08;;;;;;;;;;;;;;;;;;4222655;28;1192;-58
2021/12/28 09:02:29;;;;;;;;;;;;;;;;;;4223145;28;1002;-59
2021/12/28 09:04:49;;;;;;;;;;;;;;;;;;4222742;28;1417;-58
2021/12/28 09:07:09;;;;;;;;;;;;;;;;;;4222513;28;1164;-58
2021/12/28 09:09:29;;;;;;;;;;;;;;;;;;4222575;28;1917;-58
2021/12/28 09:11:50;;;;;;;;;;;;;;;;;;4222506;28;1058;-61
2021/12/28 09:14:11;;;;;;;;;;;;;;;;;;4222376;28;1440;-59
2021/12/28 09:16:31;;;;;;;;;;;;;;;;;;4222294;28;1266;-60
2021/12/28 09:18:51;;;;;;;;;;;;;;;;;;4222519;28;1192;-59
2021/12/28 09:21:11;;;;;;;;;;;;;;;;;;4222469;28;1148;-58
2021/12/28 09:23:32;;;;;;;;;;;;;;;;;;4222284;28;1176;-59
2021/12/28 09:25:52;;;;;;;;;;;;;;;;;;4222342;28;1273;-59
2021/12/28 09:28:13;;;;;;;;;;;;;;;;;;4222238;28;958;-58
2021/12/28 09:30:34;;;;;;;;;;;;;;;;;;4222285;28;1910;-59
2021/12/28 09:32:54;;;;;;;;;;;;;;;;;;4222285;28;1075;-59
2021/12/28 09:35:15;;;;;;;;;;;;;;;;;;4222220;28;968;-59
2021/12/28 09:37:35;;;;;;;;;;;;;;;;;;4222261;28;976;-58
2021/12/28 09:39:57;;;;;;;;;;;;;;;;;;4221803;28;993;-59
2021/12/28 09:42:17;;;;;;;;;;;;;;;;;;4221282;28;1173;-59
2021/12/28 09:44:37;;;;;;;;;;;;;;;;;;4221569;28;1050;-55
2021/12/28 09:46:58;;;;;;;;;;;;;;;;;;4222011;28;948;-55
2021/12/28 09:49:18;;;;;;;;;;;;;;;;;;4221978;28;1178;-55
2021/12/28 09:51:38;;;;;;;;;;;;;;;;;;4221907;28;2024;-54
2021/12/28 09:53:58;;;;;;;;;;;;;;;;;;4219843;28;1200;-54
2021/12/28 09:56:19;;;;;;;;;;;;;;;;;;4221488;28;988;-55
2021/12/28 09:58:39;;;;;;;;;;;;;;;;;;4221638;28;990;-57
2021/12/28 10:00:59;;;;;;;;;;;;;;;;;;4221709;28;982;-54
2021/12/28 10:03:19;;;;;;;;;;;;;;;;;;4221957;28;916;-55
2021/12/28 10:05:40;;;;;;;;;;;;;;;;;;4221982;28;940;-55
2021/12/28 10:08:00;;;;;;;;;;;;;;;;;;4221384;28;1240;-54
2021/12/28 10:10:21;;;;;;;;;;;;;;;;;;4221206;28;1971;-55
2021/12/28 10:12:41;;;;;;;;;;;;;;;;;;4221342;28;1032;-55
2021/12/28 10:15:01;;;;;;;;;;;;;;;;;;4221589;28;1049;-54
2021/12/28 10:17:23;;;;;;;;;;;;;;;;;;4221119;28;1331;-54
2021/12/28 10:19:43;;;;;;;;;;;;;;;;;;4221662;28;928;-54
2021/12/28 10:22:04;;;;;;;;;;;;;;;;;;4221738;28;1253;-55
2021/12/28 10:24:24;;;;;;;;;;;;;;;;;;4221217;28;978;-55
2021/12/28 10:26:45;;;;;;;;;;;;;;;;;;4221381;28;1037;-54
2021/12/28 10:29:05;;;;;;;;;;;;;;;;;;4221474;28;1000;-57
2021/12/28 10:31:25;;;;;;;;;;;;;;;;;;4220914;28;2043;-54
2021/12/28 10:33:45;;;;;;;;;;;;;;;;;;4221403;28;1103;-55
2021/12/28 10:36:06;;;;;;;;;;;;;;;;;;4234029;28;1450;-55
2021/12/28 10:38:26;;;;;;;;;;;;;;;;;;4238259;28;1300;-55
2021/12/28 10:40:46;;;;;;;;;;;;;;;;;;4238043;28;1080;-55
2021/12/28 10:43:07;;;;;;;;;;;;;;;;;;4237810;28;1309;-55
2021/12/28 10:45:28;;;;;;;;;;;;;;;;;;4237794;28;1338;-56
2021/12/28 10:47:48;;;;;;;;;;;;;;;;;;4238106;28;1052;-55
2021/12/28 10:50:08;;;;;;;;;;;;;;;;;;4237935;28;1882;-55
2021/12/28 10:52:33;;;;;;;;;;;;;;;;;;4237630;28;1183;-55
2021/12/28 10:54:54;;;;;;;;;;;;;;;;;;4237753;28;941;-56
2021/12/28 10:57:14;;;;;;;;;;;;;;;;;;4237470;28;993;-54
2021/12/28 10:59:34;;;;;;;;;;;;;;;;;;4237386;28;948;-55
2021/12/28 11:01:55;;;;;;;;;;;;;;;;;;4237870;28;1011;-55
2021/12/28 11:04:15;;;;;;;;;;;;;;;;;;4237864;28;1218;-55
2021/12/28 11:06:35;;;;;;;;;;;;;;;;;;4237945;28;1004;-55
2021/12/28 11:08:56;;;;;;;;;;;;;;;;;;4237593;28;1063;-55
2021/12/28 11:11:16;;;;;;;;;;;;;;;;;;4237271;28;2342;-54
2021/12/28 11:13:36;;;;;;;;;;;;;;;;;;4237313;28;1112;-55
2021/12/28 11:15:57;;;;;;;;;;;;;;;;;;4237497;28;1472;-55
2021/12/28 11:18:17;;;;;;;;;;;;;;;;;;4237716;28;981;-55
2021/12/28 11:20:38;;;;;;;;;;;;;;;;;;4239390;28;1197;-55
2021/12/28 11:22:58;;;;;;;;;;;;;;;;;;4240623;28;1176;-56
2021/12/28 11:25:18;;;;;;;;;;;;;;;;;;4240638;28;1008;-56
2021/12/28 11:27:39;;;;;;;;;;;;;;;;;;4240724;28;1077;-55
2021/12/28 11:30:00;;;;;;;;;;;;;;;;;;4240254;28;1138;-56
2021/12/28 11:32:21;;;;;;;;;;;;;;;;;;4240390;28;1209;-55
2021/12/28 11:34:42;;;;;;;;;;;;;;;;;;4240539;28;1032;-54
2021/12/28 11:37:03;;;;;;;;;;;;;;;;;;4216943;28;2489;-54
2021/12/28 11:39:25;;;;;;;;;;;;;;;;;;4207291;28;1004;-55
2021/12/28 11:41:45;;;;;;;;;;;;;;;;;;4207019;28;1109;-55
2021/12/28 11:44:05;;;;;;;;;;;;;;;;;;4206771;28;1258;-55
2021/12/28 11:46:26;;;;;;;;;;;;;;;;;;4223393;28;1125;-55
2021/12/28 11:48:47;;;;;;;;;;;;;;;;;;4223705;28;1214;-55
2021/12/28 11:51:07;;;;;;;;;;;;;;;;;;4223607;28;1914;-55
2021/12/28 11:53:27;;;;;;;;;;;;;;;;;;4219547;28;2249;-55
2021/12/28 11:55:47;;;;;;;;;;;;;;;;;;4210174;28;1119;-55
2021/12/28 11:58:07;;;;;;;;;;;;;;;;;;4215113;28;1079;-56
2021/12/28 12:00:28;;;;;;;;;;;;;;;;;;4223795;28;1579;-54
2021/12/28 12:02:49;;;;;;;;;;;;;;;;;;4213576;28;2954;-55
2021/12/28 12:05:09;;;;;;;;;;;;;;;;;;4211791;28;1492;-55
2021/12/28 12:07:31;;;;;;;;;;;;;;;;;;4206242;28;3176;-54
2021/12/28 12:09:52;;;;;;;;;;;;;;;;;;4211074;28;1190;-55
2021/12/28 12:12:13;;;;;;;;;;;;;;;;;;4221328;28;1964;-55
2021/12/28 12:14:33;;;;;;;;;;;;;;;;;;4220153;28;1722;-55
2021/12/28 12:16:54;;;;;;;;;;;;;;;;;;4216987;28;1647;-55
2021/12/28 12:19:14;;;;;;;;;;;;;;;;;;4223849;28;2900;-55
2021/12/28 12:21:34;;;;;;;;;;;;;;;;;;4209076;28;1007;-54
2021/12/28 12:23:54;;;;;;;;;;;;;;;;;;4209017;28;1716;-55
2021/12/28 12:26:19;;;;;;;;;;;;;;;;;;4220418;28;1225;-55
2021/12/28 12:28:39;;;;;;;;;;;;;;;;;;4214448;28;2449;-55
2021/12/28 12:30:59;;;;;;;;;;;;;;;;;;4220216;28;1982;-55
2021/12/28 12:33:20;;;;;;;;;;;;;;;;;;4213782;28;1705;-56
2021/12/28 12:35:41;;;;;;;;;;;;;;;;;;4218252;28;1137;-55
2021/12/28 12:38:01;;;;;;;;;;;;;;;;;;4210218;28;2824;-56
2021/12/28 12:40:22;;;;;;;;;;;;;;;;;;4218868;28;1439;-54
2021/12/28 12:42:42;;;;;;;;;;;;;;;;;;4187679;28;980;-55
2021/12/28 12:45:03;;;;;;;;;;;;;;;;;;4204320;28;1046;-55
2021/12/28 12:47:23;;;;;;;;;;;;;;;;;;4204512;28;1017;-55
2021/12/28 12:49:45;;;;;;;;;;;;;;;;;;4204464;28;928;-56
2021/12/28 12:52:06;;;;;;;;;;;;;;;;;;4204116;28;1917;-55
2021/12/28 12:54:26;;;;;;;;;;;;;;;;;;4204351;28;1171;-54
2021/12/28 12:56:46;;;;;;;;;;;;;;;;;;4204513;28;1202;-53
2021/12/28 12:59:07;;;;;;;;;;;;;;;;;;4213761;28;1864;-54
2021/12/28 13:01:27;;;;;;;;;;;;;;;;;;4221272;28;1604;-54
2021/12/28 13:03:48;;;;;;;;;;;;;;;;;;4220984;28;1118;-54
2021/12/28 13:06:08;;;;;;;;;;;;;;;;;;4220729;28;1179;-55
2021/12/28 13:08:28;;;;;;;;;;;;;;;;;;4221131;28;925;-54
2021/12/28 13:10:49;;;;;;;;;;;;;;;;;;4220882;28;1205;-55
2021/12/28 13:13:09;;;;;;;;;;;;;;;;;;4216303;28;2003;-56
2021/12/28 13:15:29;;;;;;;;;;;;;;;;;;4217265;28;1166;-56
2021/12/28 13:17:50;;;;;;;;;;;;;;;;;;4220404;28;1018;-56
2021/12/28 13:20:10;;;;;;;;;;;;;;;;;;4220963;28;1093;-56
2021/12/28 13:22:30;;;;;;;;;;;;;;;;;;4220949;28;1073;-56
2021/12/28 13:24:51;;;;;;;;;;;;;;;;;;4221075;28;1173;-56
2021/12/28 13:27:13;;;;;;;;;;;;;;;;;;4214140;28;1880;-56
2021/12/28 13:29:34;;;;;;;;;;;;;;;;;;4217259;28;941;-56
2021/12/28 13:31:55;;;;;;;;;;;;;;;;;;4220984;28;1992;-56
2021/12/28 13:34:15;;;;;;;;;;;;;;;;;;4221134;28;1166;-56
2021/12/28 13:36:35;;;;;;;;;;;;;;;;;;4220831;28;1986;-56
2021/12/28 13:38:56;;;;;;;;;;;;;;;;;;4220589;28;1014;-56
2021/12/28 13:41:16;;;;;;;;;;;;;;;;;;4220151;28;977;-55
2021/12/28 13:43:37;;;;;;;;;;;;;;;;;;4220138;28;973;-56
2021/12/28 13:45:58;;;;;;;;;;;;;;;;;;4220730;28;988;-56
2021/12/28 13:48:18;;;;;;;;;;;;;;;;;;4220984;28;998;-57
2021/12/28 13:50:38;;;;;;;;;;;;;;;;;;4221115;28;1067;-58
2021/12/28 13:52:59;;;;;;;;;;;;;;;;;;4220784;28;2000;-57
2021/12/28 13:55:20;;;;;;;;;;;;;;;;;;4212661;28;3565;-56
2021/12/28 13:57:40;;;;;;;;;;;;;;;;;;4217811;28;1171;-57
2021/12/28 14:00:00;;;;;;;;;;;;;;;;;;4202396;28;1977;-56
2021/12/28 14:02:20;;;;;;;;;;;;;;;;;;4220326;28;1184;-56
2021/12/28 14:04:41;;;;;;;;;;;;;;;;;;4203518;28;1002;-55
2021/12/28 14:07:01;;;;;;;;;;;;;;;;;;4205231;28;1064;-56
2021/12/28 14:09:21;;;;;;;;;;;;;;;;;;4221925;28;923;-56
2021/12/28 14:11:41;;;;;;;;;;;;;;;;;;4221854;28;1913;-57
2021/12/28 14:14:01;;;;;;;;;;;;;;;;;;4221838;28;1138;-56
2021/12/28 14:16:21;;;;;;;;;;;;;;;;;;4229638;28;1963;-56
2021/12/28 14:18:42;;;;;;;;;;;;;;;;;;4238410;28;956;-56
2021/12/28 14:21:03;;;;;;;;;;;;;;;;;;4238470;28;1157;-57
2021/12/28 14:23:23;;;;;;;;;;;;;;;;;;4238611;28;1046;-56
2021/12/28 14:25:44;;;;;;;;;;;;;;;;;;4238396;28;1027;-57
2021/12/28 14:28:05;;;;;;;;;;;;;;;;;;4238293;28;1261;-56
2021/12/28 14:30:25;;;;;;;;;;;;;;;;;;4238414;28;1144;-56
2021/12/28 14:46:47;;;;;;;;;;;;;;;;;;4221375;28;1005;-56
2021/12/28 14:49:07;;;;;;;;;;;;;;;;;;4221206;28;1166;-56
2021/12/28 14:51:27;;;;;;;;;;;;;;;;;;4221393;28;1146;-57
2021/12/28 14:53:48;;;;;;;;;;;;;;;;;;4220978;28;1165;-56
2021/12/28 14:56:08;;;;;;;;;;;;;;;;;;4221069;28;1064;-56
2021/12/28 14:58:29;;;;;;;;;;;;;;;;;;4221305;28;983;-56
2021/12/28 15:00:50;;;;;;;;;;;;;;;;;;4221259;28;962;-57
2021/12/28 15:03:10;;;;;;;;;;;;;;;;;;4221066;28;978;-56
2021/12/28 15:05:30;;;;;;;;;;;;;;;;;;4221114;28;1108;-56
2021/12/28 15:07:50;;;;;;;;;;;;;;;;;;4221121;28;1106;-57
2021/12/28 15:10:11;;;;;;;;;;;;;;;;;;4221163;28;1130;-56
2021/12/28 15:12:32;;;;;;;;;;;;;;;;;;4220766;28;1902;-56
2021/12/28 15:14:52;;;;;;;;;;;;;;;;;;4221612;28;981;-56
2021/12/28 15:17:13;;;;;;;;;;;;;;;;;;4220875;28;1299;-56
2021/12/28 15:19:33;;;;;;;;;;;;;;;;;;4221075;28;1147;-57
2021/12/28 15:21:53;;;;;;;;;;;;;;;;;;4221162;28;988;-56
2021/12/28 15:24:14;;;;;;;;;;;;;;;;;;4221015;28;938;-56
2021/12/28 15:26:34;;;;;;;;;;;;;;;;;;4221149;28;1197;-56
2021/12/28 15:28:54;;;;;;;;;;;;;;;;;;4221010;28;1209;-56
2021/12/28 15:38:05;;;;;;;;;;;;;;;;;;4204177;28;943;-56
2021/12/28 15:40:25;;;;;;;;;;;;;;;;;;4204378;28;964;-56
2021/12/28 15:42:45;;;;;;;;;;;;;;;;;;4204313;28;988;-58
2021/12/28 15:45:06;;;;;;;;;;;;;;;;;;4204285;28;936;-56
2021/12/28 15:47:26;;;;;;;;;;;;;;;;;;4204230;28;1035;-56
2021/12/28 15:49:46;;;;;;;;;;;;;;;;;;4204336;28;1161;-57
2021/12/28 15:52:07;;;;;;;;;;;;;;;;;;4204429;28;1910;-56
2021/12/28 15:54:27;;;;;;;;;;;;;;;;;;4204359;28;1207;-56
2021/12/28 15:56:47;;;;;;;;;;;;;;;;;;4204298;28;1253;-57
2021/12/28 15:59:08;;;;;;;;;;;;;;;;;;4204478;28;1056;-56
2021/12/28 16:01:28;;;;;;;;;;;;;;;;;;4204272;28;1203;-56
2021/12/28 16:03:49;;;;;;;;;;;;;;;;;;4204253;28;1012;-56
2021/12/28 16:06:11;;;;;;;;;;;;;;;;;;4220744;28;1022;-56
2021/12/28 16:08:32;;;;;;;;;;;;;;;;;;4206979;28;995;-56
2021/12/28 16:10:52;;;;;;;;;;;;;;;;;;4206866;28;951;-57
2021/12/28 16:13:12;;;;;;;;;;;;;;;;;;4206754;28;1970;-58
2021/12/28 16:15:32;;;;;;;;;;;;;;;;;;4206651;28;1197;-57
2021/12/28 16:17:53;;;;;;;;;;;;;;;;;;4206873;28;892;-56
2021/12/28 16:20:13;;;;;;;;;;;;;;;;;;4206714;28;958;-56
2021/12/28 16:22:34;;;;;;;;;;;;;;;;;;4206759;28;1199;-56
2021/12/28 16:24:54;;;;;;;;;;;;;;;;;;4206730;28;1096;-56
2021/12/28 16:27:14;;;;;;;;;;;;;;;;;;4207919;28;3495;-57
2021/12/28 16:29:34;;;;;;;;;;;;;;;;;;4215475;28;1008;-56
2021/12/28 16:31:54;;;;;;;;;;;;;;;;;;4212278;28;1117;-56
2021/12/28 16:34:15;;;;;;;;;;;;;;;;;;4223017;28;1128;-57
2021/12/28 16:36:39;;;;;;;;;;;;;;;;;;4223142;28;1105;-56
2021/12/28 16:38:59;;;;;;;;;;;;;;;;;;4215462;28;1560;-56
2021/12/28 16:41:20;;;;;;;;;;;;;;;;;;4215259;28;1157;-56
2021/12/28 16:43:40;;;;;;;;;;;;;;;;;;4206093;28;1401;-56